sensor_id;sensor_type;location;lat;lon;timestamp;pressure;altitude;pressure_sealevel;temperature;humidity
76680;BME280;65597;51.520;-0.224;2023-05-07T00:00:55;101380.64;;;13.02;53.49
76680;BME280;65597;51.520;-0.224;2023-05-07T00:03:20;101380.11;;;13.00;53.27
76680;BME280;65597;51.520;-0.224;2023-05-07T00:05:45;101380.68;;;13.04;53.16
76680;BME280;65597;51.520;-0.224;2023-05-07T00:08:11;101378.11;;;13.06;53.18
76680;BME280;65597;51.520;-0.224;2023-05-07T00:10:37;101376.69;;;13.31;53.25
76680;BME280;65597;51.520;-0.224;2023-05-07T00:13:01;101378.40;;;13.28;52.96
76680;BME280;65597;51.520;-0.224;2023-05-07T00:15:32;101377.88;;;13.30;52.92
76680;BME280;65597;51.520;-0.224;2023-05-07T00:17:53;101379.49;;;13.07;52.74
76680;BME280;65597;51.520;-0.224;2023-05-07T00:20:18;101379.98;;;12.89;53.30
76680;BME280;65597;51.520;-0.224;2023-05-07T00:22:43;101381.30;;;12.99;53.14
76680;BME280;65597;51.520;-0.224;2023-05-07T00:25:08;101383.97;;;12.72;53.71
76680;BME280;65597;51.520;-0.224;2023-05-07T00:27:34;101384.38;;;12.86;53.33
76680;BME280;65597;51.520;-0.224;2023-05-07T00:29:59;101382.89;;;12.89;53.51
76680;BME280;65597;51.520;-0.224;2023-05-07T00:32:25;101379.63;;;13.01;53.29
76680;BME280;65597;51.520;-0.224;2023-05-07T00:34:50;101375.66;;;12.94;53.31
76680;BME280;65597;51.520;-0.224;2023-05-07T00:37:16;101374.99;;;12.73;53.52
76680;BME280;65597;51.520;-0.224;2023-05-07T00:39:41;101379.05;;;12.98;53.25
76680;BME280;65597;51.520;-0.224;2023-05-07T00:42:06;101377.10;;;12.74;53.63
76680;BME280;65597;51.520;-0.224;2023-05-07T00:44:32;101380.24;;;13.04;53.18
76680;BME280;65597;51.520;-0.224;2023-05-07T00:47:01;101380.62;;;12.98;53.17
76680;BME280;65597;51.520;-0.224;2023-05-07T00:49:25;101378.61;;;12.78;53.44
76680;BME280;65597;51.520;-0.224;2023-05-07T00:51:48;101380.62;;;12.87;53.93
76680;BME280;65597;51.520;-0.224;2023-05-07T00:54:13;101381.09;;;12.80;53.59
76680;BME280;65597;51.520;-0.224;2023-05-07T00:56:39;101381.00;;;12.81;53.44
76680;BME280;65597;51.520;-0.224;2023-05-07T00:59:05;101384.00;;;13.09;53.31
76680;BME280;65597;51.520;-0.224;2023-05-07T01:01:31;101386.28;;;13.22;53.22
76680;BME280;65597;51.520;-0.224;2023-05-07T01:03:55;101382.10;;;13.02;53.18
76680;BME280;65597;51.520;-0.224;2023-05-07T01:06:22;101385.28;;;13.57;53.03
76680;BME280;65597;51.520;-0.224;2023-05-07T01:08:46;101388.34;;;12.36;54.23
76680;BME280;65597;51.520;-0.224;2023-05-07T01:11:11;101390.59;;;12.59;53.65
76680;BME280;65597;51.520;-0.224;2023-05-07T01:13:37;101386.98;;;12.62;53.64
76680;BME280;65597;51.520;-0.224;2023-05-07T01:16:02;101391.05;;;12.52;54.05
76680;BME280;65597;51.520;-0.224;2023-05-07T01:18:27;101391.18;;;12.92;53.58
76680;BME280;65597;51.520;-0.224;2023-05-07T01:20:52;101389.69;;;12.72;53.44
76680;BME280;65597;51.520;-0.224;2023-05-07T01:23:18;101394.50;;;12.03;54.39
76680;BME280;65597;51.520;-0.224;2023-05-07T01:25:43;101392.95;;;12.38;54.10
76680;BME280;65597;51.520;-0.224;2023-05-07T01:28:09;101396.25;;;12.66;53.66
76680;BME280;65597;51.520;-0.224;2023-05-07T01:30:34;101395.47;;;12.68;53.61
76680;BME280;65597;51.520;-0.224;2023-05-07T01:33:01;101397.30;;;12.57;53.69
76680;BME280;65597;51.520;-0.224;2023-05-07T01:35:29;101393.82;;;12.84;53.61
76680;BME280;65597;51.520;-0.224;2023-05-07T01:37:50;101393.50;;;12.29;53.79
76680;BME280;65597;51.520;-0.224;2023-05-07T01:40:15;101392.39;;;12.75;53.86
76680;BME280;65597;51.520;-0.224;2023-05-07T01:42:41;101386.70;;;12.65;53.75
76680;BME280;65597;51.520;-0.224;2023-05-07T01:45:07;101382.35;;;12.63;53.74
76680;BME280;65597;51.520;-0.224;2023-05-07T01:47:35;101383.11;;;12.64;53.62
76680;BME280;65597;51.520;-0.224;2023-05-07T01:49:58;101384.78;;;12.57;53.85
76680;BME280;65597;51.520;-0.224;2023-05-07T01:52:28;101386.65;;;12.92;53.58
76680;BME280;65597;51.520;-0.224;2023-05-07T01:54:48;101387.39;;;12.68;53.63
76680;BME280;65597;51.520;-0.224;2023-05-07T01:57:14;101387.52;;;12.67;53.59
76680;BME280;65597;51.520;-0.224;2023-05-07T01:59:39;101387.90;;;12.73;53.51
76680;BME280;65597;51.520;-0.224;2023-05-07T02:02:04;101388.20;;;13.07;53.46
76680;BME280;65597;51.520;-0.224;2023-05-07T02:04:30;101389.65;;;12.53;53.44
76680;BME280;65597;51.520;-0.224;2023-05-07T02:06:55;101394.48;;;12.78;53.45
76680;BME280;65597;51.520;-0.224;2023-05-07T02:09:21;101395.10;;;12.44;53.76
76680;BME280;65597;51.520;-0.224;2023-05-07T02:11:47;101396.48;;;12.71;53.52
76680;BME280;65597;51.520;-0.224;2023-05-07T02:14:12;101397.10;;;12.51;53.46
76680;BME280;65597;51.520;-0.224;2023-05-07T02:16:37;101394.35;;;12.75;53.09
76680;BME280;65597;51.520;-0.224;2023-05-07T02:19:02;101398.03;;;12.76;53.04
76680;BME280;65597;51.520;-0.224;2023-05-07T02:21:27;101401.10;;;12.71;53.14
76680;BME280;65597;51.520;-0.224;2023-05-07T02:23:52;101401.06;;;12.75;52.96
76680;BME280;65597;51.520;-0.224;2023-05-07T02:26:18;101397.56;;;13.11;52.83
76680;BME280;65597;51.520;-0.224;2023-05-07T02:28:43;101396.61;;;12.80;53.18
76680;BME280;65597;51.520;-0.224;2023-05-07T02:31:08;101392.97;;;12.88;52.91
76680;BME280;65597;51.520;-0.224;2023-05-07T02:33:33;101392.75;;;13.08;52.46
76680;BME280;65597;51.520;-0.224;2023-05-07T02:36:10;101392.05;;;13.17;52.19
76680;BME280;65597;51.520;-0.224;2023-05-07T02:38:24;101392.96;;;13.24;51.99
76680;BME280;65597;51.520;-0.224;2023-05-07T02:40:49;101394.97;;;13.24;51.93
76680;BME280;65597;51.520;-0.224;2023-05-07T02:43:15;101400.03;;;13.35;51.70
76680;BME280;65597;51.520;-0.224;2023-05-07T02:45:40;101406.79;;;13.33;51.79
76680;BME280;65597;51.520;-0.224;2023-05-07T02:48:07;101407.78;;;13.18;51.82
76680;BME280;65597;51.520;-0.224;2023-05-07T02:50:31;101408.28;;;13.17;51.82
76680;BME280;65597;51.520;-0.224;2023-05-07T02:52:57;101410.30;;;13.12;51.95
76680;BME280;65597;51.520;-0.224;2023-05-07T02:55:22;101409.50;;;13.18;51.83
76680;BME280;65597;51.520;-0.224;2023-05-07T02:57:48;101405.80;;;13.28;51.67
76680;BME280;65597;51.520;-0.224;2023-05-07T03:00:15;101406.68;;;13.35;51.58
76680;BME280;65597;51.520;-0.224;2023-05-07T03:02:38;101407.10;;;13.11;51.83
76680;BME280;65597;51.520;-0.224;2023-05-07T03:05:04;101408.30;;;13.30;51.68
76680;BME280;65597;51.520;-0.224;2023-05-07T03:07:29;101410.71;;;13.33;51.62
76680;BME280;65597;51.520;-0.224;2023-05-07T03:09:55;101411.60;;;13.16;51.88
76680;BME280;65597;51.520;-0.224;2023-05-07T03:12:23;101411.99;;;12.94;52.20
76680;BME280;65597;51.520;-0.224;2023-05-07T03:14:46;101414.36;;;13.06;51.98
76680;BME280;65597;51.520;-0.224;2023-05-07T03:17:11;101414.75;;;13.17;51.80
76680;BME280;65597;51.520;-0.224;2023-05-07T03:19:36;101414.40;;;13.06;51.93
76680;BME280;65597;51.520;-0.224;2023-05-07T03:22:02;101412.92;;;13.26;52.02
76680;BME280;65597;51.520;-0.224;2023-05-07T03:24:27;101416.28;;;13.03;52.06
76680;BME280;65597;51.520;-0.224;2023-05-07T03:26:52;101413.44;;;13.24;52.15
76680;BME280;65597;51.520;-0.224;2023-05-07T03:29:23;101415.91;;;12.94;52.25
76680;BME280;65597;51.520;-0.224;2023-05-07T03:31:43;101421.27;;;13.04;52.11
76680;BME280;65597;51.520;-0.224;2023-05-07T03:34:09;101421.68;;;12.98;52.19
76680;BME280;65597;51.520;-0.224;2023-05-07T03:36:35;101423.78;;;13.05;52.12
76680;BME280;65597;51.520;-0.224;2023-05-07T03:38:59;101424.55;;;12.94;52.33
76680;BME280;65597;51.520;-0.224;2023-05-07T03:41:25;101427.51;;;12.94;52.38
76680;BME280;65597;51.520;-0.224;2023-05-07T03:43:50;101429.11;;;13.06;52.16
76680;BME280;65597;51.520;-0.224;2023-05-07T03:46:20;101432.90;;;13.08;52.09
76680;BME280;65597;51.520;-0.224;2023-05-07T03:48:43;101430.15;;;13.40;51.98
76680;BME280;65597;51.520;-0.224;2023-05-07T03:51:07;101428.06;;;13.40;51.96
76680;BME280;65597;51.520;-0.224;2023-05-07T03:53:32;101428.89;;;13.17;51.90
76680;BME280;65597;51.520;-0.224;2023-05-07T03:55:57;101432.10;;;13.23;51.78
76680;BME280;65597;51.520;-0.224;2023-05-07T03:58:23;101437.88;;;12.99;51.74
76680;BME280;65597;51.520;-0.224;2023-05-07T04:00:48;101442.12;;;13.14;52.01
76680;BME280;65597;51.520;-0.224;2023-05-07T04:03:14;101444.76;;;13.21;51.85
76680;BME280;65597;51.520;-0.224;2023-05-07T04:05:38;101447.35;;;13.20;51.90
76680;BME280;65597;51.520;-0.224;2023-05-07T04:08:04;101450.70;;;12.92;52.45
76680;BME280;65597;51.520;-0.224;2023-05-07T04:10:29;101448.25;;;13.44;52.41
76680;BME280;65597;51.520;-0.224;2023-05-07T04:12:55;101447.49;;;12.88;52.45
76680;BME280;65597;51.520;-0.224;2023-05-07T04:15:19;101449.63;;;13.01;52.25
76680;BME280;65597;51.520;-0.224;2023-05-07T04:17:44;101450.64;;;12.98;52.17
76680;BME280;65597;51.520;-0.224;2023-05-07T04:20:14;101455.73;;;12.95;52.37
76680;BME280;65597;51.520;-0.224;2023-05-07T04:22:34;101457.59;;;12.97;52.33
76680;BME280;65597;51.520;-0.224;2023-05-07T04:25:00;101460.50;;;13.29;52.21
76680;BME280;65597;51.520;-0.224;2023-05-07T04:27:25;101468.49;;;13.61;52.15
76680;BME280;65597;51.520;-0.224;2023-05-07T04:29:51;101468.10;;;13.10;52.32
76680;BME280;65597;51.520;-0.224;2023-05-07T04:32:15;101471.02;;;13.05;52.42
76680;BME280;65597;51.520;-0.224;2023-05-07T04:34:41;101469.98;;;13.20;52.18
76680;BME280;65597;51.520;-0.224;2023-05-07T04:37:07;101470.17;;;13.20;52.17
76680;BME280;65597;51.520;-0.224;2023-05-07T04:39:32;101471.91;;;13.26;52.14
76680;BME280;65597;51.520;-0.224;2023-05-07T04:41:57;101470.32;;;13.23;52.23
76680;BME280;65597;51.520;-0.224;2023-05-07T04:44:22;101469.35;;;13.27;52.06
76680;BME280;65597;51.520;-0.224;2023-05-07T04:46:47;101472.95;;;13.35;51.89
76680;BME280;65597;51.520;-0.224;2023-05-07T04:49:14;101475.58;;;13.33;51.99
76680;BME280;65597;51.520;-0.224;2023-05-07T04:51:38;101479.09;;;13.30;52.11
76680;BME280;65597;51.520;-0.224;2023-05-07T04:54:03;101481.25;;;13.42;51.96
76680;BME280;65597;51.520;-0.224;2023-05-07T04:56:29;101481.69;;;13.37;52.03
76680;BME280;65597;51.520;-0.224;2023-05-07T04:58:54;101483.00;;;13.27;52.15
76680;BME280;65597;51.520;-0.224;2023-05-07T05:01:21;101486.06;;;13.20;52.21
76680;BME280;65597;51.520;-0.224;2023-05-07T05:03:45;101490.25;;;13.11;52.47
76680;BME280;65597;51.520;-0.224;2023-05-07T05:06:11;101493.67;;;13.00;52.76
76680;BME280;65597;51.520;-0.224;2023-05-07T05:08:41;101496.56;;;13.13;52.61
76680;BME280;65597;51.520;-0.224;2023-05-07T05:11:01;101496.18;;;13.20;52.60
76680;BME280;65597;51.520;-0.224;2023-05-07T05:13:28;101493.94;;;13.20;52.62
76680;BME280;65597;51.520;-0.224;2023-05-07T05:15:57;101495.79;;;12.93;53.04
76680;BME280;65597;51.520;-0.224;2023-05-07T05:18:17;101498.06;;;13.10;52.76
76680;BME280;65597;51.520;-0.224;2023-05-07T05:20:43;101500.91;;;13.05;53.34
76680;BME280;65597;51.520;-0.224;2023-05-07T05:23:08;101501.93;;;12.61;53.56
76680;BME280;65597;51.520;-0.224;2023-05-07T05:25:35;101507.47;;;12.87;53.15
76680;BME280;65597;51.520;-0.224;2023-05-07T05:27:59;101502.66;;;12.95;53.01
76680;BME280;65597;51.520;-0.224;2023-05-07T05:30:24;101501.59;;;12.99;52.85
76680;BME280;65597;51.520;-0.224;2023-05-07T05:32:50;101505.45;;;12.79;53.20
76680;BME280;65597;51.520;-0.224;2023-05-07T05:35:15;101502.20;;;12.74;53.53
76680;BME280;65597;51.520;-0.224;2023-05-07T05:37:42;101503.75;;;12.96;54.16
76680;BME280;65597;51.520;-0.224;2023-05-07T05:40:07;101503.69;;;12.43;54.23
76680;BME280;65597;51.520;-0.224;2023-05-07T05:42:31;101506.89;;;12.54;53.89
76680;BME280;65597;51.520;-0.224;2023-05-07T05:44:56;101506.15;;;12.53;53.76
76680;BME280;65597;51.520;-0.224;2023-05-07T05:47:22;101507.68;;;12.98;53.54
76680;BME280;65597;51.520;-0.224;2023-05-07T05:49:48;101511.70;;;12.46;53.81
76680;BME280;65597;51.520;-0.224;2023-05-07T05:52:12;101517.43;;;12.39;53.96
76680;BME280;65597;51.520;-0.224;2023-05-07T05:54:37;101521.69;;;12.47;53.87
76680;BME280;65597;51.520;-0.224;2023-05-07T05:57:04;101526.28;;;12.68;54.44
76680;BME280;65597;51.520;-0.224;2023-05-07T05:59:28;101528.10;;;12.88;54.17
76680;BME280;65597;51.520;-0.224;2023-05-07T06:01:55;101527.03;;;12.58;53.71
76680;BME280;65597;51.520;-0.224;2023-05-07T06:04:19;101529.05;;;12.94;53.31
76680;BME280;65597;51.520;-0.224;2023-05-07T06:06:44;101530.55;;;12.72;53.16
76680;BME280;65597;51.520;-0.224;2023-05-07T06:09:09;101535.29;;;12.99;52.76
76680;BME280;65597;51.520;-0.224;2023-05-07T06:11:35;101539.73;;;12.87;52.52
76680;BME280;65597;51.520;-0.224;2023-05-07T06:14:01;101543.73;;;12.91;52.57
76680;BME280;65597;51.520;-0.224;2023-05-07T06:16:26;101547.53;;;13.04;52.55
76680;BME280;65597;51.520;-0.224;2023-05-07T06:18:51;101546.96;;;13.31;52.71
76680;BME280;65597;51.520;-0.224;2023-05-07T06:21:16;101549.09;;;13.39;52.45
76680;BME280;65597;51.520;-0.224;2023-05-07T06:23:42;101548.97;;;13.05;52.88
76680;BME280;65597;51.520;-0.224;2023-05-07T06:26:09;101552.32;;;12.95;52.75
76680;BME280;65597;51.520;-0.224;2023-05-07T06:28:33;101552.83;;;13.01;52.65
76680;BME280;65597;51.520;-0.224;2023-05-07T06:31:12;101556.71;;;12.57;53.90
76680;BME280;65597;51.520;-0.224;2023-05-07T06:33:23;101555.20;;;12.78;53.46
76680;BME280;65597;51.520;-0.224;2023-05-07T06:35:49;101556.53;;;12.57;54.11
76680;BME280;65597;51.520;-0.224;2023-05-07T06:38:14;101555.87;;;12.55;54.07
76680;BME280;65597;51.520;-0.224;2023-05-07T06:40:48;101555.01;;;12.75;53.49
76680;BME280;65597;51.520;-0.224;2023-05-07T06:43:04;101557.10;;;12.89;53.74
76680;BME280;65597;51.520;-0.224;2023-05-07T06:45:29;101561.15;;;12.85;53.12
76680;BME280;65597;51.520;-0.224;2023-05-07T06:47:55;101564.16;;;12.96;53.39
76680;BME280;65597;51.520;-0.224;2023-05-07T06:50:22;101563.55;;;13.05;52.82
76680;BME280;65597;51.520;-0.224;2023-05-07T06:52:45;101564.92;;;12.95;52.61
76680;BME280;65597;51.520;-0.224;2023-05-07T06:55:11;101564.50;;;13.55;52.45
76680;BME280;65597;51.520;-0.224;2023-05-07T06:57:37;101563.05;;;13.04;52.39
76680;BME280;65597;51.520;-0.224;2023-05-07T07:00:02;101562.99;;;13.15;52.24
76680;BME280;65597;51.520;-0.224;2023-05-07T07:02:28;101563.61;;;13.03;52.02
76680;BME280;65597;51.520;-0.224;2023-05-07T07:04:52;101566.08;;;13.18;52.42
76680;BME280;65597;51.520;-0.224;2023-05-07T07:07:17;101566.80;;;13.15;52.37
76680;BME280;65597;51.520;-0.224;2023-05-07T07:09:42;101565.43;;;13.11;52.46
76680;BME280;65597;51.520;-0.224;2023-05-07T07:12:08;101562.96;;;13.12;52.51
76680;BME280;65597;51.520;-0.224;2023-05-07T07:14:33;101563.99;;;13.19;52.21
76680;BME280;65597;51.520;-0.224;2023-05-07T07:16:58;101564.55;;;12.91;52.70
76680;BME280;65597;51.520;-0.224;2023-05-07T07:19:25;101566.38;;;13.36;52.54
76680;BME280;65597;51.520;-0.224;2023-05-07T07:21:49;101568.56;;;13.14;52.63
76680;BME280;65597;51.520;-0.224;2023-05-07T07:24:14;101573.54;;;13.28;52.36
76680;BME280;65597;51.520;-0.224;2023-05-07T07:26:41;101576.38;;;13.23;52.39
76680;BME280;65597;51.520;-0.224;2023-05-07T07:29:05;101575.50;;;13.22;52.14
76680;BME280;65597;51.520;-0.224;2023-05-07T07:31:30;101576.20;;;13.23;52.00
76680;BME280;65597;51.520;-0.224;2023-05-07T07:33:55;101577.17;;;13.27;51.87
76680;BME280;65597;51.520;-0.224;2023-05-07T07:36:20;101578.40;;;13.31;51.62
76680;BME280;65597;51.520;-0.224;2023-05-07T07:38:45;101577.48;;;13.33;50.82
76680;BME280;65597;51.520;-0.224;2023-05-07T07:41:11;101581.13;;;13.27;51.33
76680;BME280;65597;51.520;-0.224;2023-05-07T07:43:36;101583.74;;;12.95;51.35
76680;BME280;65597;51.520;-0.224;2023-05-07T07:46:02;101590.64;;;12.99;51.83
76680;BME280;65597;51.520;-0.224;2023-05-07T07:48:32;101589.86;;;13.07;51.70
76680;BME280;65597;51.520;-0.224;2023-05-07T07:50:54;101590.66;;;13.18;51.76
76680;BME280;65597;51.520;-0.224;2023-05-07T07:53:18;101589.39;;;13.18;52.14
76680;BME280;65597;51.520;-0.224;2023-05-07T07:55:43;101590.38;;;13.17;52.29
76680;BME280;65597;51.520;-0.224;2023-05-07T07:58:08;101592.34;;;13.15;52.46
76680;BME280;65597;51.520;-0.224;2023-05-07T08:00:34;101593.70;;;13.39;52.32
76680;BME280;65597;51.520;-0.224;2023-05-07T08:03:00;101592.15;;;13.39;52.66
76680;BME280;65597;51.520;-0.224;2023-05-07T08:05:24;101591.80;;;13.46;52.53
76680;BME280;65597;51.520;-0.224;2023-05-07T08:07:49;101592.08;;;13.65;52.31
76680;BME280;65597;51.520;-0.224;2023-05-07T08:10:14;101592.55;;;13.56;52.22
76680;BME280;65597;51.520;-0.224;2023-05-07T08:12:39;101599.58;;;13.39;52.68
76680;BME280;65597;51.520;-0.224;2023-05-07T08:15:07;101600.72;;;13.42;51.85
76680;BME280;65597;51.520;-0.224;2023-05-07T08:17:30;101601.47;;;13.44;52.39
76680;BME280;65597;51.520;-0.224;2023-05-07T08:19:55;101603.14;;;13.28;52.27
76680;BME280;65597;51.520;-0.224;2023-05-07T08:22:20;101604.77;;;13.38;52.67
76680;BME280;65597;51.520;-0.224;2023-05-07T08:24:45;101606.90;;;13.48;52.39
76680;BME280;65597;51.520;-0.224;2023-05-07T08:27:11;101611.85;;;13.54;52.24
76680;BME280;65597;51.520;-0.224;2023-05-07T08:29:36;101612.68;;;13.39;52.70
76680;BME280;65597;51.520;-0.224;2023-05-07T08:32:02;101616.38;;;13.25;53.29
76680;BME280;65597;51.520;-0.224;2023-05-07T08:34:27;101618.33;;;13.29;52.65
76680;BME280;65597;51.520;-0.224;2023-05-07T08:36:53;101623.85;;;13.11;53.08
76680;BME280;65597;51.520;-0.224;2023-05-07T08:39:25;101627.63;;;13.15;53.25
76680;BME280;65597;51.520;-0.224;2023-05-07T08:41:44;101627.60;;;13.29;53.05
76680;BME280;65597;51.520;-0.224;2023-05-07T08:44:12;101626.44;;;13.38;52.70
76680;BME280;65597;51.520;-0.224;2023-05-07T08:46:39;101632.76;;;13.08;53.19
76680;BME280;65597;51.520;-0.224;2023-05-07T08:48:59;101631.30;;;12.96;53.15
76680;BME280;65597;51.520;-0.224;2023-05-07T08:51:26;101629.50;;;13.03;53.00
76680;BME280;65597;51.520;-0.224;2023-05-07T08:53:50;101629.51;;;13.32;52.76
76680;BME280;65597;51.520;-0.224;2023-05-07T08:56:16;101628.56;;;13.30;52.79
76680;BME280;65597;51.520;-0.224;2023-05-07T08:58:42;101627.40;;;13.29;52.81
76680;BME280;65597;51.520;-0.224;2023-05-07T09:01:09;101626.49;;;13.26;52.69
76680;BME280;65597;51.520;-0.224;2023-05-07T09:03:35;101629.33;;;13.55;52.51
76680;BME280;65597;51.520;-0.224;2023-05-07T09:05:58;101633.76;;;13.69;52.36
76680;BME280;65597;51.520;-0.224;2023-05-07T09:08:25;101638.32;;;13.71;52.36
76680;BME280;65597;51.520;-0.224;2023-05-07T09:10:49;101635.37;;;13.48;52.29
76680;BME280;65597;51.520;-0.224;2023-05-07T09:13:14;101637.63;;;13.58;52.27
76680;BME280;65597;51.520;-0.224;2023-05-07T09:15:40;101637.55;;;13.65;52.36
76680;BME280;65597;51.520;-0.224;2023-05-07T09:18:05;101638.85;;;13.26;52.56
76680;BME280;65597;51.520;-0.224;2023-05-07T09:20:31;101641.85;;;12.72;52.79
76680;BME280;65597;51.520;-0.224;2023-05-07T09:22:56;101638.05;;;13.47;52.39
76680;BME280;65597;51.520;-0.224;2023-05-07T09:25:28;101642.29;;;13.66;52.46
76680;BME280;65597;51.520;-0.224;2023-05-07T09:27:48;101646.63;;;13.40;52.22
76680;BME280;65597;51.520;-0.224;2023-05-07T09:30:13;101650.87;;;13.52;51.67
76680;BME280;65597;51.520;-0.224;2023-05-07T09:32:37;101654.14;;;13.41;51.20
76680;BME280;65597;51.520;-0.224;2023-05-07T09:35:03;101661.27;;;13.40;51.19
76680;BME280;65597;51.520;-0.224;2023-05-07T09:37:30;101668.30;;;13.48;51.69
76680;BME280;65597;51.520;-0.224;2023-05-07T09:39:54;101671.49;;;13.61;50.80
76680;BME280;65597;51.520;-0.224;2023-05-07T09:42:23;101674.26;;;13.35;51.31
76680;BME280;65597;51.520;-0.224;2023-05-07T09:44:44;101669.14;;;13.68;51.11
76680;BME280;65597;51.520;-0.224;2023-05-07T09:47:10;101672.37;;;13.70;51.61
76680;BME280;65597;51.520;-0.224;2023-05-07T09:49:36;101673.13;;;13.65;50.50
76680;BME280;65597;51.520;-0.224;2023-05-07T09:52:01;101680.27;;;13.82;50.52
76680;BME280;65597;51.520;-0.224;2023-05-07T09:54:25;101678.43;;;13.37;51.00
76680;BME280;65597;51.520;-0.224;2023-05-07T09:56:51;101677.76;;;13.48;51.66
76680;BME280;65597;51.520;-0.224;2023-05-07T09:59:16;101675.76;;;13.22;50.68
76680;BME280;65597;51.520;-0.224;2023-05-07T10:01:42;101675.68;;;13.37;51.21
76680;BME280;65597;51.520;-0.224;2023-05-07T10:04:08;101676.47;;;13.74;50.55
76680;BME280;65597;51.520;-0.224;2023-05-07T10:06:32;101676.15;;;13.81;50.20
76680;BME280;65597;51.520;-0.224;2023-05-07T10:08:58;101680.12;;;13.91;50.04
76680;BME280;65597;51.520;-0.224;2023-05-07T10:11:23;101683.47;;;14.38;49.47
76680;BME280;65597;51.520;-0.224;2023-05-07T10:13:48;101685.36;;;13.86;49.24
76680;BME280;65597;51.520;-0.224;2023-05-07T10:16:14;101689.32;;;13.62;49.03
76680;BME280;65597;51.520;-0.224;2023-05-07T10:18:40;101695.45;;;13.89;49.12
76680;BME280;65597;51.520;-0.224;2023-05-07T10:21:08;101696.79;;;14.27;47.93
76680;BME280;65597;51.520;-0.224;2023-05-07T10:23:31;101698.05;;;14.17;48.08
76680;BME280;65597;51.520;-0.224;2023-05-07T10:25:55;101701.84;;;13.86;48.78
76680;BME280;65597;51.520;-0.224;2023-05-07T10:28:23;101703.66;;;13.11;50.38
76680;BME280;65597;51.520;-0.224;2023-05-07T10:30:55;101706.71;;;13.75;48.89
76680;BME280;65597;51.520;-0.224;2023-05-07T10:33:13;101709.01;;;13.71;49.40
76680;BME280;65597;51.520;-0.224;2023-05-07T10:35:39;101710.50;;;13.66;49.72
76680;BME280;65597;51.520;-0.224;2023-05-07T10:38:01;101713.55;;;13.76;49.12
76680;BME280;65597;51.520;-0.224;2023-05-07T10:40:30;101717.85;;;13.81;48.77
76680;BME280;65597;51.520;-0.224;2023-05-07T10:42:54;101715.83;;;13.73;50.53
76680;BME280;65597;51.520;-0.224;2023-05-07T10:45:18;101717.28;;;13.35;50.82
76680;BME280;65597;51.520;-0.224;2023-05-07T10:50:20;101715.77;;;14.07;49.53
76680;BME280;65597;51.520;-0.224;2023-05-07T10:52:35;101721.81;;;14.37;48.67
76680;BME280;65597;51.520;-0.224;2023-05-07T10:55:19;101720.71;;;14.50;49.75
76680;BME280;65597;51.520;-0.224;2023-05-07T10:57:33;101723.05;;;13.83;50.02
76680;BME280;65597;51.520;-0.224;2023-05-07T10:59:50;101726.18;;;14.14;49.68
76680;BME280;65597;51.520;-0.224;2023-05-07T11:02:15;101724.98;;;14.64;48.27
76680;BME280;65597;51.520;-0.224;2023-05-07T11:04:42;101719.73;;;14.16;48.28
76680;BME280;65597;51.520;-0.224;2023-05-07T11:07:23;101724.14;;;13.69;49.12
76680;BME280;65597;51.520;-0.224;2023-05-07T11:11:57;101724.61;;;14.09;47.82
76680;BME280;65597;51.520;-0.224;2023-05-07T11:14:43;101733.93;;;14.10;49.06
76680;BME280;65597;51.520;-0.224;2023-05-07T11:16:49;101738.38;;;13.93;48.50
76680;BME280;65597;51.520;-0.224;2023-05-07T11:19:13;101741.26;;;14.23;49.37
76680;BME280;65597;51.520;-0.224;2023-05-07T11:21:40;101749.25;;;13.81;50.25
76680;BME280;65597;51.520;-0.224;2023-05-07T11:24:05;101755.43;;;13.86;50.19
76680;BME280;65597;51.520;-0.224;2023-05-07T11:26:30;101753.49;;;13.87;49.83
76680;BME280;65597;51.520;-0.224;2023-05-07T11:28:57;101758.31;;;13.80;48.93
76680;BME280;65597;51.520;-0.224;2023-05-07T11:31:22;101764.86;;;13.69;49.12
76680;BME280;65597;51.520;-0.224;2023-05-07T11:33:45;101764.77;;;13.76;49.35
76680;BME280;65597;51.520;-0.224;2023-05-07T11:36:10;101766.32;;;14.41;48.84
76680;BME280;65597;51.520;-0.224;2023-05-07T11:38:37;101766.93;;;14.13;49.13
76680;BME280;65597;51.520;-0.224;2023-05-07T11:41:03;101769.65;;;13.58;49.72
76680;BME280;65597;51.520;-0.224;2023-05-07T11:43:27;101768.57;;;13.32;50.94
76680;BME280;65597;51.520;-0.224;2023-05-07T11:45:52;101767.57;;;13.56;50.29
76680;BME280;65597;51.520;-0.224;2023-05-07T11:48:22;101769.69;;;13.62;50.16
76680;BME280;65597;51.520;-0.224;2023-05-07T11:50:51;101773.13;;;13.98;49.82
76680;BME280;65597;51.520;-0.224;2023-05-07T11:53:14;101777.06;;;13.87;49.63
76680;BME280;65597;51.520;-0.224;2023-05-07T11:55:33;101774.23;;;13.67;50.37
76680;BME280;65597;51.520;-0.224;2023-05-07T11:57:58;101777.02;;;13.64;50.39
76680;BME280;65597;51.520;-0.224;2023-05-07T12:00:24;101779.36;;;14.03;48.25
76680;BME280;65597;51.520;-0.224;2023-05-07T12:02:49;101773.19;;;13.93;47.29
76680;BME280;65597;51.520;-0.224;2023-05-07T12:05:16;101774.28;;;13.90;48.36
76680;BME280;65597;51.520;-0.224;2023-05-07T12:07:40;101771.32;;;13.72;49.29
76680;BME280;65597;51.520;-0.224;2023-05-07T12:10:06;101770.58;;;14.38;48.47
76680;BME280;65597;51.520;-0.224;2023-05-07T12:12:30;101772.01;;;13.88;48.85
76680;BME280;65597;51.520;-0.224;2023-05-07T12:14:56;101776.17;;;13.78;49.70
76680;BME280;65597;51.520;-0.224;2023-05-07T12:17:21;101777.27;;;13.41;49.27
76680;BME280;65597;51.520;-0.224;2023-05-07T12:19:47;101774.32;;;13.47;50.15
76680;BME280;65597;51.520;-0.224;2023-05-07T12:22:12;101771.18;;;13.54;49.42
76680;BME280;65597;51.520;-0.224;2023-05-07T12:24:45;101769.48;;;13.23;49.62
76680;BME280;65597;51.520;-0.224;2023-05-07T12:27:03;101772.62;;;14.04;48.71
76680;BME280;65597;51.520;-0.224;2023-05-07T12:29:28;101782.40;;;13.91;48.50
76680;BME280;65597;51.520;-0.224;2023-05-07T12:31:53;101779.85;;;13.83;47.67
76680;BME280;65597;51.520;-0.224;2023-05-07T12:34:19;101777.69;;;13.71;48.64